createdAt,value
2023-08-29T00:00:28.339Z,60.44
2023-08-29T00:02:56.131Z,60.34
2023-08-29T00:05:23.960Z,60.52
2023-08-29T00:07:51.733Z,60.34
2023-08-29T00:10:19.797Z,60.31
2023-08-29T00:12:48.911Z,60.62
2023-08-29T00:15:16.848Z,60.17
2023-08-29T00:17:45.518Z,60.57
2023-08-29T00:20:13.693Z,60.51
2023-08-29T00:22:41.440Z,60.53
2023-08-29T00:25:09.872Z,60.72
2023-08-29T00:27:37.965Z,60.67
2023-08-29T00:30:08.964Z,61.07
2023-08-29T00:32:36.774Z,60.96
2023-08-29T00:35:05.926Z,60.80
2023-08-29T00:37:34.449Z,60.77
2023-08-29T00:40:02.827Z,60.99
2023-08-29T00:42:33.014Z,60.83
2023-08-29T00:45:00.753Z,60.18
2023-08-29T00:47:32.401Z,60.41
2023-08-29T00:50:00.219Z,60.88
2023-08-29T00:52:28.043Z,59.87
2023-08-29T00:54:55.823Z,60.87
2023-08-29T00:57:23.647Z,60.65
2023-08-29T00:59:51.845Z,60.80
2023-08-29T01:02:19.881Z,60.72
2023-08-29T01:04:49.000Z,60.67
2023-08-29T01:07:16.802Z,60.20
2023-08-29T01:09:45.492Z,60.67
2023-08-29T01:12:18.088Z,60.60
2023-08-29T01:14:51.843Z,59.96
2023-08-29T01:17:25.722Z,60.43
2023-08-29T01:19:55.219Z,60.10
2023-08-29T01:22:31.890Z,60.80
2023-08-29T01:25:07.030Z,60.13
2023-08-29T01:27:37.310Z,60.21
2023-08-29T01:30:06.972Z,60.39
2023-08-29T01:32:40.792Z,59.94
2023-08-29T01:35:09.712Z,59.81
2023-08-29T01:37:37.763Z,59.68
2023-08-29T01:40:07.469Z,59.79
2023-08-29T01:42:38.465Z,60.67
2023-08-29T01:45:07.314Z,60.37
2023-08-29T01:47:36.526Z,60.67
2023-08-29T01:50:07.013Z,60.68
2023-08-29T01:52:35.000Z,60.83
2023-08-29T01:55:04.012Z,60.22
2023-08-29T01:57:35.740Z,60.35
2023-08-29T02:00:06.577Z,60.41
2023-08-29T02:02:42.415Z,60.37
2023-08-29T02:05:10.372Z,59.91
2023-08-29T02:07:38.196Z,59.70
2023-08-29T02:10:06.727Z,59.97
2023-08-29T02:12:35.572Z,59.92
2023-08-29T02:15:05.893Z,59.74
2023-08-29T02:17:34.523Z,60.14
2023-08-29T02:20:02.325Z,59.72
2023-08-29T02:22:34.269Z,59.56
2023-08-29T02:25:05.431Z,59.77
2023-08-29T02:27:34.201Z,59.67
2023-08-29T02:30:04.438Z,60.47
2023-08-29T02:32:35.775Z,60.84
2023-08-29T02:35:05.187Z,60.68
2023-08-29T02:37:34.297Z,60.89
2023-08-29T02:40:02.181Z,61.09
2023-08-29T02:42:29.920Z,60.38
2023-08-29T02:44:57.673Z,59.72
2023-08-29T02:47:25.421Z,60.01
2023-08-29T02:49:54.597Z,59.57
2023-08-29T02:52:22.902Z,59.97
2023-08-29T02:54:50.671Z,60.16
2023-08-29T02:57:18.466Z,60.00
2023-08-29T02:59:46.182Z,59.66
2023-08-29T03:02:14.215Z,59.39
2023-08-29T03:04:43.296Z,59.81
2023-08-29T03:07:12.435Z,59.84
2023-08-29T03:09:40.227Z,59.90
2023-08-29T03:12:09.181Z,60.40
2023-08-29T03:14:37.130Z,60.57
2023-08-29T03:17:05.442Z,60.65
2023-08-29T03:19:33.401Z,60.11
2023-08-29T03:22:01.193Z,60.19
2023-08-29T03:24:34.443Z,59.77
2023-08-29T03:27:02.258Z,59.81
2023-08-29T03:29:30.023Z,60.11
2023-08-29T03:31:57.781Z,59.99
2023-08-29T03:34:25.826Z,59.89
2023-08-29T03:36:53.594Z,59.64
2023-08-29T03:39:21.432Z,59.56
2023-08-29T03:41:50.464Z,60.19
2023-08-29T03:44:18.330Z,59.96
2023-08-29T03:46:46.084Z,60.16
2023-08-29T03:49:13.877Z,60.35
2023-08-29T03:51:41.767Z,60.08
2023-08-29T03:54:10.083Z,60.46
2023-08-29T03:56:40.675Z,60.18
2023-08-29T03:59:10.134Z,59.73
2023-08-29T04:01:38.048Z,59.97
2023-08-29T04:04:07.268Z,60.18
2023-08-29T04:06:36.468Z,60.68
2023-08-29T04:09:04.844Z,60.66
2023-08-29T04:11:32.679Z,60.73
2023-08-29T04:14:00.730Z,60.69
2023-08-29T04:16:30.062Z,60.34
2023-08-29T04:18:57.827Z,60.55
2023-08-29T04:21:26.005Z,60.38
2023-08-29T04:23:53.785Z,60.28
2023-08-29T04:26:22.455Z,60.36
2023-08-29T04:28:50.233Z,60.48
2023-08-29T04:31:18.680Z,60.29
2023-08-29T04:33:47.968Z,60.50
2023-08-29T04:36:17.782Z,59.99
2023-08-29T04:38:46.268Z,60.65
2023-08-29T04:41:14.098Z,60.60
2023-08-29T04:43:42.088Z,60.21
2023-08-29T04:46:09.868Z,60.19
2023-08-29T04:48:38.366Z,60.21
2023-08-29T04:51:07.572Z,60.17
2023-08-29T04:53:36.226Z,60.30
2023-08-29T04:56:05.647Z,60.44
2023-08-29T04:58:37.693Z,59.96
2023-08-29T05:01:07.886Z,60.37
2023-08-29T05:03:35.979Z,60.11
2023-08-29T05:06:03.783Z,60.67
2023-08-29T05:08:36.136Z,60.47
2023-08-29T05:11:04.756Z,59.88
2023-08-29T05:13:32.557Z,59.72
2023-08-29T05:16:00.820Z,59.39
2023-08-29T05:18:29.507Z,59.07
2023-08-29T05:20:59.421Z,59.83
2023-08-29T05:23:27.200Z,59.59
2023-08-29T05:25:56.437Z,59.70
2023-08-29T05:28:24.339Z,59.52
2023-08-29T05:30:52.568Z,60.11
2023-08-29T05:33:20.573Z,60.07
2023-08-29T05:35:48.481Z,60.25
2023-08-29T05:38:16.226Z,60.29
2023-08-29T05:40:44.044Z,60.74
2023-08-29T05:43:13.431Z,60.53
2023-08-29T05:45:43.413Z,60.39
2023-08-29T05:48:11.532Z,60.44
2023-08-29T05:50:41.102Z,60.25
2023-08-29T05:53:08.947Z,60.79
2023-08-29T05:55:36.752Z,60.56
2023-08-29T05:58:05.129Z,60.61
2023-08-29T06:00:34.565Z,60.66
2023-08-29T06:03:05.228Z,60.80
2023-08-29T06:05:34.122Z,60.60
2023-08-29T06:08:16.911Z,61.52
2023-08-29T06:10:47.698Z,61.58
2023-08-29T06:13:15.623Z,61.58
2023-08-29T06:15:45.458Z,61.37
2023-08-29T06:18:13.434Z,61.50
2023-08-29T06:20:41.346Z,62.57
2023-08-29T06:23:09.148Z,63.27
2023-08-29T06:25:37.887Z,63.97
2023-08-29T06:28:06.657Z,64.28
2023-08-29T06:30:36.018Z,64.29
2023-08-29T06:33:07.712Z,64.49
2023-08-29T06:35:38.019Z,64.24
2023-08-29T06:38:06.732Z,64.32
2023-08-29T06:40:34.992Z,64.32
2023-08-29T06:43:03.596Z,64.41
2023-08-29T06:45:31.736Z,63.67
2023-08-29T06:47:59.487Z,64.21
2023-08-29T06:50:28.799Z,63.83
2023-08-29T06:52:56.605Z,64.35
2023-08-29T06:55:25.139Z,64.41
2023-08-29T06:57:52.910Z,64.45
2023-08-29T07:00:23.850Z,64.39
2023-08-29T07:02:52.407Z,63.81
2023-08-29T07:05:20.482Z,63.40
2023-08-29T07:07:49.606Z,63.53
2023-08-29T07:10:17.560Z,63.47
2023-08-29T07:12:45.554Z,63.08
2023-08-29T07:15:13.496Z,63.77
2023-08-29T07:17:43.008Z,63.26
2023-08-29T07:20:12.686Z,63.45
2023-08-29T07:22:44.218Z,63.41
2023-08-29T07:25:13.705Z,63.51
2023-08-29T07:27:41.476Z,63.53
2023-08-29T07:30:15.656Z,63.89
2023-08-29T07:32:44.480Z,63.45
2023-08-29T07:35:12.280Z,63.27
2023-08-29T07:37:40.245Z,63.67
2023-08-29T07:40:10.154Z,63.44
2023-08-29T07:42:39.453Z,63.45
2023-08-29T07:45:08.399Z,63.07
2023-08-29T07:47:36.481Z,63.42
2023-08-29T07:50:04.846Z,63.17
2023-08-29T07:52:32.616Z,62.81
2023-08-29T07:55:00.440Z,63.13
2023-08-29T07:57:28.653Z,63.46
2023-08-29T07:59:58.073Z,63.64
2023-08-29T08:02:25.950Z,62.80
2023-08-29T08:04:53.767Z,62.87
2023-08-29T08:07:21.493Z,62.68
2023-08-29T08:09:49.276Z,62.63
2023-08-29T08:12:17.281Z,63.36
2023-08-29T08:14:45.034Z,63.40
2023-08-29T08:17:14.334Z,63.38
2023-08-29T08:19:42.171Z,62.70
2023-08-29T08:22:11.277Z,62.83
2023-08-29T08:24:39.038Z,62.65
2023-08-29T08:27:08.435Z,62.69
2023-08-29T08:29:36.488Z,62.65
2023-08-29T08:32:04.833Z,62.42
2023-08-29T08:34:34.108Z,62.37
2023-08-29T08:37:01.975Z,61.74
2023-08-29T08:39:32.641Z,61.35
2023-08-29T08:42:00.532Z,61.53
2023-08-29T08:44:28.773Z,61.16
2023-08-29T08:46:56.624Z,61.24
2023-08-29T08:49:24.765Z,61.12
2023-08-29T08:51:54.876Z,61.12
2023-08-29T08:54:22.645Z,60.76
2023-08-29T08:56:50.633Z,60.56
2023-08-29T08:59:18.474Z,60.40
2023-08-29T09:01:46.588Z,59.74
2023-08-29T09:04:15.488Z,60.11
2023-08-29T09:06:43.390Z,60.11
2023-08-29T09:09:18.941Z,59.77
2023-08-29T09:11:52.885Z,59.73
2023-08-29T09:14:20.730Z,59.72
2023-08-29T09:16:48.794Z,58.74
2023-08-29T09:19:19.249Z,58.17
2023-08-29T09:21:47.216Z,58.49
2023-08-29T09:24:15.533Z,58.72
2023-08-29T09:26:44.935Z,59.49
2023-08-29T09:29:19.870Z,58.65
2023-08-29T09:31:48.801Z,58.88
2023-08-29T09:34:27.377Z,59.28
2023-08-29T09:36:55.865Z,58.63
2023-08-29T09:39:23.881Z,58.41
2023-08-29T09:42:04.459Z,59.68
2023-08-29T09:44:37.100Z,58.70
2023-08-29T09:47:05.543Z,58.75
2023-08-29T09:49:44.328Z,57.88
2023-08-29T09:52:12.662Z,58.54
2023-08-29T09:54:46.056Z,58.02
2023-08-29T09:57:17.066Z,58.22
2023-08-29T09:59:46.004Z,58.57
2023-08-29T10:02:15.238Z,58.68
2023-08-29T10:04:47.929Z,59.22
2023-08-29T10:07:18.673Z,59.10
2023-08-29T10:09:46.661Z,59.38
2023-08-29T10:12:16.511Z,58.44
2023-08-29T10:14:46.134Z,59.02
2023-08-29T10:17:29.790Z,58.21
2023-08-29T10:20:00.832Z,57.66
2023-08-29T10:22:31.270Z,56.77
2023-08-29T10:25:01.056Z,56.76
2023-08-29T10:27:30.396Z,56.37
2023-08-29T10:29:58.442Z,56.15
2023-08-29T10:32:28.506Z,56.19
2023-08-29T10:34:56.518Z,56.19
2023-08-29T10:37:25.017Z,56.26
2023-08-29T10:39:53.118Z,55.43
2023-08-29T10:42:20.978Z,55.73
2023-08-29T10:44:52.107Z,55.67
2023-08-29T10:47:27.888Z,54.79
2023-08-29T10:50:02.005Z,54.35
2023-08-29T10:52:38.700Z,53.21
2023-08-29T10:55:10.604Z,52.96
2023-08-29T10:57:38.454Z,52.62
2023-08-29T11:00:17.243Z,52.09
2023-08-29T11:02:45.645Z,51.63
2023-08-29T11:05:15.158Z,51.16
2023-08-29T11:07:43.709Z,50.30
2023-08-29T11:10:19.404Z,51.57
2023-08-29T11:13:08.973Z,51.67
2023-08-29T11:16:09.436Z,51.54
2023-08-29T11:18:37.596Z,51.38
2023-08-29T11:21:09.612Z,51.43
2023-08-29T11:26:09.353Z,51.06
2023-08-29T11:28:43.243Z,50.95
2023-08-29T11:31:13.395Z,51.09
2023-08-29T11:33:42.440Z,50.04
2023-08-29T11:36:11.079Z,49.24
2023-08-29T11:38:39.282Z,50.30
2023-08-29T11:41:11.417Z,50.84
2023-08-29T11:44:32.451Z,50.30
2023-08-29T11:46:42.067Z,48.74
2023-08-29T11:49:13.836Z,48.70
2023-08-29T11:51:42.844Z,49.27
2023-08-29T11:54:42.291Z,48.69
2023-08-29T11:57:13.128Z,47.68
2023-08-29T11:59:42.086Z,46.45
2023-08-29T12:02:14.954Z,46.84
2023-08-29T12:04:45.419Z,47.11
2023-08-29T12:07:14.228Z,48.06
2023-08-29T12:09:43.981Z,47.52
2023-08-29T12:12:29.687Z,48.14
2023-08-29T12:14:58.767Z,49.73
2023-08-29T12:17:39.511Z,48.97
2023-08-29T12:20:26.949Z,50.06
2023-08-29T12:22:54.748Z,50.32
2023-08-29T12:25:22.562Z,50.01
2023-08-29T12:27:50.586Z,50.52
2023-08-29T12:30:18.972Z,49.99
2023-08-29T12:32:49.323Z,49.13
2023-08-29T12:35:18.909Z,49.67
2023-08-29T12:37:46.992Z,50.21
2023-08-29T12:40:15.815Z,49.90
2023-08-29T12:42:44.815Z,49.31
2023-08-29T12:45:12.755Z,49.58
2023-08-29T12:47:40.695Z,48.37
2023-08-29T12:50:10.795Z,48.80
2023-08-29T12:52:40.125Z,47.80
2023-08-29T12:55:08.412Z,47.82
2023-08-29T12:57:36.568Z,47.89
2023-08-29T13:00:08.108Z,47.87
2023-08-29T13:02:36.385Z,48.22
2023-08-29T13:05:04.426Z,48.08
2023-08-29T13:07:33.660Z,48.11
2023-08-29T13:10:01.415Z,48.66
2023-08-29T13:12:29.269Z,49.46
2023-08-29T13:14:57.126Z,49.34
2023-08-29T13:17:24.901Z,48.65
2023-08-29T13:19:53.046Z,48.41
2023-08-29T13:22:23.411Z,49.88
2023-08-29T13:24:54.195Z,49.42
2023-08-29T13:27:22.326Z,48.90
2023-08-29T13:29:50.609Z,48.94
2023-08-29T13:32:18.584Z,47.46
2023-08-29T13:34:46.337Z,46.51
2023-08-29T13:37:14.287Z,46.02
2023-08-29T13:39:44.708Z,45.94
2023-08-29T13:42:13.918Z,45.30
2023-08-29T13:44:41.787Z,45.93
2023-08-29T13:47:10.428Z,45.25
2023-08-29T13:49:38.623Z,45.04
2023-08-29T13:52:08.538Z,45.27
2023-08-29T13:54:37.154Z,44.87
2023-08-29T13:57:05.969Z,45.12
2023-08-29T13:59:35.231Z,45.08
2023-08-29T14:02:03.865Z,45.34
2023-08-29T14:04:31.808Z,46.11
2023-08-29T14:06:59.650Z,45.21
2023-08-29T14:09:27.477Z,45.39
2023-08-29T14:11:55.239Z,45.98
2023-08-29T14:14:25.196Z,45.80
2023-08-29T14:16:54.850Z,45.67
2023-08-29T14:19:23.096Z,43.65
2023-08-29T14:21:50.922Z,42.15
2023-08-29T14:24:18.730Z,42.33
2023-08-29T14:26:46.861Z,41.88
2023-08-29T14:29:14.677Z,41.77
2023-08-29T14:31:42.576Z,41.54
2023-08-29T14:34:11.741Z,41.82
2023-08-29T14:36:39.560Z,41.82
2023-08-29T14:39:07.315Z,41.75
2023-08-29T14:41:35.390Z,41.88
2023-08-29T14:44:03.346Z,42.92
2023-08-29T14:46:31.249Z,43.28
2023-08-29T14:48:59.114Z,43.67
2023-08-29T14:51:28.385Z,43.47
2023-08-29T14:53:57.461Z,43.98
2023-08-29T14:56:25.225Z,43.93
2023-08-29T14:58:52.971Z,44.26
2023-08-29T15:01:20.766Z,43.69
2023-08-29T15:03:48.716Z,44.45
2023-08-29T15:06:17.214Z,44.76
2023-08-29T15:08:46.327Z,45.04
2023-08-29T15:11:14.102Z,45.00
2023-08-29T15:13:41.905Z,45.92
2023-08-29T15:16:09.757Z,44.89
2023-08-29T15:18:37.775Z,45.87
2023-08-29T15:21:06.841Z,46.61
2023-08-29T15:23:35.506Z,45.95
2023-08-29T15:26:05.691Z,45.59
2023-08-29T15:28:33.709Z,44.87
2023-08-29T15:31:02.636Z,44.71
2023-08-29T15:33:31.356Z,45.50
2023-08-29T15:36:00.432Z,45.25
2023-08-29T15:38:29.997Z,45.74
2023-08-29T15:40:58.045Z,46.34
2023-08-29T15:43:27.399Z,45.85
2023-08-29T15:45:56.349Z,45.97
2023-08-29T15:48:24.498Z,46.02
2023-08-29T15:50:55.321Z,46.83
2023-08-29T15:53:23.234Z,46.45
2023-08-29T15:55:51.253Z,46.07
2023-08-29T15:58:19.275Z,47.10
2023-08-29T16:00:48.428Z,47.19
2023-08-29T16:03:16.252Z,47.82
2023-08-29T16:05:45.525Z,47.99
2023-08-29T16:08:13.639Z,48.67
2023-08-29T16:10:42.154Z,48.98
2023-08-29T16:13:10.133Z,49.26
2023-08-29T16:15:38.020Z,48.64
2023-08-29T16:18:07.822Z,48.88
2023-08-29T16:20:35.867Z,49.47
2023-08-29T16:23:03.867Z,50.13
2023-08-29T16:25:31.781Z,50.90
2023-08-29T16:28:00.905Z,51.74
2023-08-29T16:30:29.178Z,51.78
2023-08-29T16:32:57.217Z,51.83
2023-08-29T16:35:26.418Z,51.98
2023-08-29T16:38:01.859Z,51.64
2023-08-29T16:40:31.704Z,52.12
2023-08-29T16:42:59.538Z,52.61
2023-08-29T16:45:27.363Z,52.28
2023-08-29T16:47:56.050Z,52.72
2023-08-29T16:50:24.253Z,52.88
2023-08-29T16:52:53.337Z,52.46
2023-08-29T16:55:22.001Z,52.43
2023-08-29T16:57:49.824Z,52.68
2023-08-29T17:00:18.409Z,51.74
2023-08-29T17:02:46.258Z,52.20
2023-08-29T17:05:14.535Z,50.91
2023-08-29T17:07:42.426Z,50.11
2023-08-29T17:10:12.079Z,51.24
2023-08-29T17:12:39.829Z,51.54
2023-08-29T17:15:09.374Z,52.25
2023-08-29T17:17:37.323Z,52.69
2023-08-29T17:20:07.112Z,52.77
2023-08-29T17:22:35.509Z,52.57
2023-08-29T17:25:03.742Z,53.20
2023-08-29T17:27:32.791Z,53.56
2023-08-29T17:30:06.290Z,53.47
2023-08-29T17:32:34.212Z,53.06
2023-08-29T17:35:02.370Z,53.06
2023-08-29T17:37:30.267Z,52.90
2023-08-29T17:39:58.031Z,52.51
2023-08-29T17:42:25.958Z,52.42
2023-08-29T17:44:56.830Z,53.01
2023-08-29T17:47:24.761Z,52.75
2023-08-29T17:49:52.765Z,52.99
2023-08-29T17:52:20.600Z,52.41
2023-08-29T17:54:48.362Z,53.40
2023-08-29T17:57:16.123Z,53.34
2023-08-29T17:59:43.957Z,53.82
2023-08-29T18:02:15.773Z,53.64
2023-08-29T18:04:44.419Z,53.72
2023-08-29T18:07:13.358Z,54.15
2023-08-29T18:09:41.309Z,53.80
2023-08-29T18:12:09.326Z,54.34
2023-08-29T18:14:37.114Z,54.46
2023-08-29T18:17:05.338Z,54.04
2023-08-29T18:19:34.539Z,53.35
2023-08-29T18:22:02.263Z,53.62
2023-08-29T18:24:30.167Z,52.99
2023-08-29T18:26:57.935Z,53.69
2023-08-29T18:29:25.694Z,53.38
2023-08-29T18:31:53.485Z,53.68
2023-08-29T18:34:21.521Z,53.55
2023-08-29T18:36:50.623Z,53.50
2023-08-29T18:39:19.819Z,53.78
2023-08-29T18:41:47.859Z,54.25
2023-08-29T18:44:15.717Z,54.84
2023-08-29T18:46:43.507Z,54.31
2023-08-29T18:49:11.330Z,54.38
2023-08-29T18:51:39.094Z,54.39
2023-08-29T18:54:08.350Z,54.41
2023-08-29T18:56:36.117Z,54.42
2023-08-29T18:59:03.947Z,53.81
2023-08-29T19:01:31.796Z,53.62
2023-08-29T19:03:59.622Z,53.30
2023-08-29T19:06:27.480Z,53.60
2023-08-29T19:08:55.338Z,53.33
2023-08-29T19:11:24.437Z,53.62
2023-08-29T19:13:52.814Z,53.67
2023-08-29T19:16:20.621Z,54.07
2023-08-29T19:18:48.663Z,54.07
2023-08-29T19:21:16.678Z,54.05
2023-08-29T19:23:44.537Z,54.23
2023-08-29T19:26:12.363Z,54.20
2023-08-29T19:28:41.552Z,54.25
2023-08-29T19:31:09.421Z,54.80
2023-08-29T19:33:37.570Z,54.89
2023-08-29T19:36:12.825Z,55.23
2023-08-29T19:38:41.195Z,55.14
2023-08-29T19:41:08.982Z,55.22
2023-08-29T19:43:36.822Z,54.99
2023-08-29T19:46:06.303Z,55.55
2023-08-29T19:48:34.172Z,55.04
2023-08-29T19:51:02.129Z,55.16
2023-08-29T19:53:29.987Z,54.47
2023-08-29T19:55:57.745Z,54.71
2023-08-29T19:58:25.485Z,55.33
2023-08-29T20:00:53.887Z,55.39
2023-08-29T20:03:23.550Z,56.17
2023-08-29T20:05:51.344Z,56.04
2023-08-29T20:08:19.348Z,56.60
2023-08-29T20:10:48.010Z,55.47
2023-08-29T20:13:15.864Z,55.93
2023-08-29T20:15:44.564Z,55.46
2023-08-29T20:18:12.982Z,55.70
2023-08-29T20:20:43.059Z,56.21
2023-08-29T20:23:11.175Z,56.54
2023-08-29T20:25:39.243Z,56.16
2023-08-29T20:28:08.083Z,56.00
2023-08-29T20:30:36.569Z,56.82
2023-08-29T20:33:04.831Z,56.50
2023-08-29T20:35:34.982Z,56.23
2023-08-29T20:38:07.018Z,56.49
2023-08-29T20:40:35.443Z,56.08
2023-08-29T20:43:04.622Z,56.30
2023-08-29T20:45:33.556Z,56.52
2023-08-29T20:48:01.380Z,57.08
2023-08-29T20:50:29.341Z,56.96
2023-08-29T20:52:57.149Z,57.39
2023-08-29T20:55:26.307Z,57.45
2023-08-29T20:57:54.231Z,56.97
2023-08-29T21:00:22.574Z,57.67
2023-08-29T21:02:50.463Z,57.32
2023-08-29T21:05:18.516Z,57.56
2023-08-29T21:07:47.948Z,57.44
2023-08-29T21:10:15.915Z,57.63
2023-08-29T21:12:45.034Z,57.55
2023-08-29T21:15:12.768Z,57.30
2023-08-29T21:17:40.611Z,57.89
2023-08-29T21:20:09.969Z,58.12
2023-08-29T21:22:38.062Z,57.68
2023-08-29T21:25:06.895Z,57.68
2023-08-29T21:27:34.699Z,58.00
2023-08-29T21:30:05.342Z,58.00
2023-08-29T21:32:33.257Z,57.78
2023-08-29T21:35:01.059Z,57.93
2023-08-29T21:37:28.889Z,58.16
2023-08-29T21:39:56.835Z,58.54
2023-08-29T21:42:24.661Z,57.86
2023-08-29T21:44:52.930Z,58.75
2023-08-29T21:47:22.304Z,59.14
2023-08-29T21:49:51.082Z,58.92
2023-08-29T21:52:19.459Z,59.07
2023-08-29T21:54:47.291Z,58.94
2023-08-29T21:57:15.239Z,58.76
2023-08-29T21:59:44.541Z,58.53
2023-08-29T22:02:12.527Z,58.84
2023-08-29T22:04:41.703Z,58.31
2023-08-29T22:07:09.449Z,58.53
2023-08-29T22:09:37.211Z,58.59
2023-08-29T22:12:05.905Z,58.32
2023-08-29T22:14:33.667Z,58.78
2023-08-29T22:17:01.466Z,58.52
2023-08-29T22:19:29.396Z,58.93
2023-08-29T22:21:58.552Z,58.99
2023-08-29T22:24:26.261Z,59.35
2023-08-29T22:26:54.051Z,59.21
2023-08-29T22:29:21.811Z,59.00
2023-08-29T22:31:49.587Z,59.22
2023-08-29T22:34:17.426Z,59.69
2023-08-29T22:36:45.223Z,58.85
2023-08-29T22:39:16.303Z,59.04
2023-08-29T22:41:44.399Z,59.58
2023-08-29T22:44:12.296Z,59.96
2023-08-29T22:46:40.084Z,60.08
2023-08-29T22:49:07.868Z,61.00
2023-08-29T22:51:36.386Z,60.58
2023-08-29T22:54:05.112Z,60.70
2023-08-29T22:56:34.230Z,60.87
2023-08-29T22:59:02.230Z,60.78
2023-08-29T23:01:31.133Z,61.05
2023-08-29T23:03:59.234Z,61.67
2023-08-29T23:06:27.020Z,61.10
2023-08-29T23:08:54.885Z,61.77
2023-08-29T23:11:22.721Z,61.74
2023-08-29T23:13:52.189Z,61.96
2023-08-29T23:16:20.063Z,62.12
2023-08-29T23:18:47.817Z,61.86
2023-08-29T23:21:15.557Z,61.33
2023-08-29T23:23:43.366Z,61.88
2023-08-29T23:26:11.464Z,61.55
2023-08-29T23:28:39.197Z,61.12
2023-08-29T23:31:08.488Z,61.48
2023-08-29T23:33:51.171Z,61.44
2023-08-29T23:36:19.385Z,61.24
2023-08-29T23:38:47.244Z,61.34
2023-08-29T23:41:15.199Z,60.86
2023-08-29T23:43:42.996Z,60.54
2023-08-29T23:46:12.237Z,60.84
2023-08-29T23:48:39.941Z,61.04
2023-08-29T23:51:07.699Z,61.55
2023-08-29T23:53:35.492Z,61.15
2023-08-29T23:56:02.349Z,60.90
2023-08-29T23:58:31.045Z,61.17
